Time;durP1;ratioP1;P1;durP2;ratioP2;P2;SDS_P1;SDS_P2;PMS_P1;PMS_P2;Temp;Humidity;BMP_temperature;BMP_pressure;BME280_temperature;BME280_humidity;BME280_pressure;Samples;Min_cycle;Max_cycle;Signal;HPM_P1;HPM_P2
2022/01/23 00:00:19;;;;;;;0.85;0.47;;;;;;;;;;4975775;28;20041;-94
2022/01/23 00:02:46;;;;;;;1.05;0.38;;;;;;;;;;4974168;28;20056;-94
2022/01/23 00:05:12;;;;;;;1.02;0.38;;;;;;;;;;4973980;28;20027;-94
2022/01/23 00:07:40;;;;;;;2.35;0.80;;;;;;;;;;4973966;28;20078;-94
2022/01/23 00:10:09;;;;;;;2.97;0.52;;;;;;;;;;4974232;28;20077;-94
2022/01/23 00:12:43;;;;;;;2.13;0.40;;;;;;;;;;4957634;28;20413;-93
2022/01/23 00:18:02;;;;;;;2.30;0.50;;;;;;;;;;4979049;28;20034;-94
2022/01/23 00:20:31;;;;;;;2.05;0.43;;;;;;;;;;4977336;28;20035;-94
2022/01/23 00:23:01;;;;;;;2.70;0.65;;;;;;;;;;4977250;28;20104;-94
2022/01/23 00:31:00;;;;;;;2.40;0.45;;;;;;;;;;4994783;28;20049;-95
2022/01/23 00:33:26;;;;;;;4.10;0.75;;;;;;;;;;4977635;28;20472;-94
2022/01/23 00:35:54;;;;;;;1.88;0.50;;;;;;;;;;4980558;28;20027;-94
2022/01/23 00:38:22;;;;;;;3.75;0.90;;;;;;;;;;4980622;28;20109;-94
2022/01/23 00:40:48;;;;;;;1.48;0.65;;;;;;;;;;4980528;28;20022;-94
2022/01/23 00:43:26;;;;;;;2.70;0.77;;;;;;;;;;4980529;28;20033;-94
2022/01/23 00:45:57;;;;;;;1.10;0.50;;;;;;;;;;4981555;28;20030;-93
2022/01/23 00:48:29;;;;;;;1.35;0.60;;;;;;;;;;4980444;28;20104;-94
2022/01/23 00:51:00;;;;;;;2.53;0.55;;;;;;;;;;4980482;28;20530;-94
2022/01/23 00:53:26;;;;;;;1.25;0.50;;;;;;;;;;4980359;28;20032;-93
2022/01/23 00:55:53;;;;;;;1.48;0.77;;;;;;;;;;4980354;28;20030;-94
2022/01/23 00:58:19;;;;;;;1.23;0.65;;;;;;;;;;4980265;28;20104;-94
2022/01/23 01:00:45;;;;;;;1.27;0.70;;;;;;;;;;4980189;28;20025;-94
2022/01/23 01:03:11;;;;;;;2.45;0.80;;;;;;;;;;4980240;28;20041;-95
2022/01/23 01:05:37;;;;;;;1.73;0.60;;;;;;;;;;4980216;28;20026;-95
2022/01/23 01:08:04;;;;;;;1.40;0.50;;;;;;;;;;4980438;28;20065;-95
2022/01/23 01:10:41;;;;;;;2.17;0.90;;;;;;;;;;4980038;28;20022;-93
2022/01/23 01:13:11;;;;;;;4.15;0.63;;;;;;;;;;4979985;28;20064;-94
2022/01/23 01:15:54;;;;;;;2.58;0.77;;;;;;;;;;4979749;28;20081;-94
2022/01/23 01:32:39;;;;;;;4.38;2.00;;;;;;;;;;4997287;28;20088;-94
2022/01/23 01:35:16;;;;;;;2.92;0.90;;;;;;;;;;4980418;28;20073;-93
2022/01/23 01:37:43;;;;;;;4.30;2.25;;;;;;;;;;4979647;28;20527;-94
2022/01/23 01:40:09;;;;;;;1.50;0.80;;;;;;;;;;4979767;28;20033;-93
2022/01/23 01:42:35;;;;;;;3.85;0.82;;;;;;;;;;4979330;28;20045;-94
2022/01/23 01:45:01;;;;;;;1.80;0.90;;;;;;;;;;4978378;28;20113;-93
2022/01/23 01:47:28;;;;;;;8.18;1.40;;;;;;;;;;4979248;28;20030;-93
2022/01/23 01:49:54;;;;;;;4.53;1.38;;;;;;;;;;4979418;28;20029;-93
2022/01/23 01:52:20;;;;;;;2.20;0.80;;;;;;;;;;4979167;28;20026;-93
2022/01/23 01:54:48;;;;;;;1.80;0.98;;;;;;;;;;4979211;28;20169;-93
2022/01/23 01:57:15;;;;;;;1.23;0.88;;;;;;;;;;4979078;28;20027;-93
2022/01/23 01:59:49;;;;;;;1.60;1.10;;;;;;;;;;4979224;28;20029;-93
2022/01/23 02:10:32;;;;;;;6.22;2.03;;;;;;;;;;4996667;28;20033;-92
2022/01/23 02:18:22;;;;;;;1.58;0.88;;;;;;;;;;4996111;28;20031;-94
2022/01/23 02:24:01;;;;;;;2.13;0.90;;;;;;;;;;4996146;28;20041;-93
2022/01/23 02:51:23;;;;;;;2.13;0.82;;;;;;;;;;4995822;28;20041;-92
2022/01/23 02:56:57;;;;;;;2.08;1.10;;;;;;;;;;4954608;28;20031;-93
2022/01/23 03:04:52;;;;;;;3.65;1.08;;;;;;;;;;4972990;28;20026;-95
2022/01/23 03:10:18;;;;;;;2.13;1.08;;;;;;;;;;4995378;28;20106;-94
2022/01/23 03:29:18;;;;;;;1.98;1.02;;;;;;;;;;4995559;28;20034;-94
2022/01/23 03:34:25;;;;;;;3.78;0.80;;;;;;;;;;4994979;28;20061;-94
2022/01/23 03:36:51;;;;;;;2.10;1.00;;;;;;;;;;4977696;28;20042;-93
2022/01/23 03:39:17;;;;;;;2.60;1.00;;;;;;;;;;4977288;28;20500;-95
2022/01/23 03:41:45;;;;;;;3.97;0.90;;;;;;;;;;4977509;28;20033;-94
2022/01/23 03:44:12;;;;;;;4.90;0.75;;;;;;;;;;4977711;28;20054;-94
2022/01/23 03:51:55;;;;;;;1.23;0.85;;;;;;;;;;4995098;28;20397;-94
2022/01/23 03:54:23;;;;;;;2.35;1.20;;;;;;;;;;4977514;28;20026;-93
2022/01/23 03:56:52;;;;;;;2.65;1.02;;;;;;;;;;4977387;28;20026;-94
2022/01/23 03:59:18;;;;;;;8.70;1.70;;;;;;;;;;4977470;28;20022;-95
2022/01/23 04:01:44;;;;;;;1.85;0.90;;;;;;;;;;4977528;28;20109;-95
2022/01/23 04:04:26;;;;;;;2.35;0.90;;;;;;;;;;4977304;28;20396;-94
2022/01/23 04:06:52;;;;;;;2.20;0.77;;;;;;;;;;4977328;28;20029;-95
2022/01/23 04:09:21;;;;;;;2.65;1.08;;;;;;;;;;4979229;28;20478;-95
2022/01/23 04:11:51;;;;;;;2.17;1.02;;;;;;;;;;4981125;28;20113;-94
2022/01/23 04:14:22;;;;;;;2.90;0.90;;;;;;;;;;4981021;28;20034;-95
2022/01/23 04:19:55;;;;;;;5.03;0.98;;;;;;;;;;4998861;28;20508;-95
2022/01/23 05:01:05;;;;;;;1.98;0.75;;;;;;;;;;4997999;28;20100;-95
2022/01/23 05:06:04;;;;;;;1.75;0.90;;;;;;;;;;4997619;28;20481;-94
2022/01/23 05:08:33;;;;;;;1.92;0.98;;;;;;;;;;4996780;28;20102;-95
2022/01/23 05:11:00;;;;;;;1.63;0.77;;;;;;;;;;4996389;28;20436;-95
2022/01/23 05:13:27;;;;;;;1.48;0.63;;;;;;;;;;4996296;28;20073;-95
2022/01/23 05:15:53;;;;;;;1.48;0.80;;;;;;;;;;4996055;28;20073;-94
2022/01/23 05:18:22;;;;;;;2.95;0.80;;;;;;;;;;4996201;28;20022;-94
2022/01/23 05:20:57;;;;;;;3.72;0.90;;;;;;;;;;4996176;28;20025;-93
2022/01/23 05:23:23;;;;;;;1.52;0.93;;;;;;;;;;4996211;28;20022;-94
2022/01/23 05:25:49;;;;;;;3.33;0.73;;;;;;;;;;4996001;28;20404;-94
2022/01/23 05:28:15;;;;;;;2.05;0.90;;;;;;;;;;4995879;28;20029;-94
2022/01/23 05:30:43;;;;;;;4.10;0.90;;;;;;;;;;4995866;28;20392;-94
2022/01/23 05:33:09;;;;;;;2.33;0.95;;;;;;;;;;4995826;28;20118;-94
2022/01/23 05:35:40;;;;;;;4.45;0.95;;;;;;;;;;4995913;28;20035;-95
2022/01/23 05:38:06;;;;;;;3.65;1.05;;;;;;;;;;4995670;28;20386;-94
2022/01/23 05:40:33;;;;;;;2.28;1.05;;;;;;;;;;4996140;28;20023;-94
2022/01/23 05:42:59;;;;;;;2.25;0.70;;;;;;;;;;4995738;28;20033;-94
2022/01/23 05:45:30;;;;;;;2.58;0.85;;;;;;;;;;4995544;28;20054;-94
2022/01/23 05:47:56;;;;;;;2.30;0.68;;;;;;;;;;4995680;28;20117;-95
2022/01/23 05:50:22;;;;;;;4.38;1.20;;;;;;;;;;4995766;28;20026;-95
2022/01/23 05:52:50;;;;;;;1.25;0.70;;;;;;;;;;4995737;28;20041;-94
2022/01/23 05:55:19;;;;;;;5.28;0.90;;;;;;;;;;4995611;28;20358;-95
2022/01/23 05:57:47;;;;;;;2.85;0.90;;;;;;;;;;4995351;28;20113;-94
2022/01/23 06:00:14;;;;;;;5.10;0.98;;;;;;;;;;4995377;28;20027;-94
2022/01/23 06:02:40;;;;;;;2.17;1.00;;;;;;;;;;4995235;28;20026;-95
2022/01/23 06:05:14;;;;;;;3.67;0.95;;;;;;;;;;4995618;28;20034;-95
2022/01/23 06:07:42;;;;;;;2.92;1.05;;;;;;;;;;4995214;28;20109;-94
2022/01/23 06:10:15;;;;;;;4.63;2.17;;;;;;;;;;4995184;28;20469;-95
2022/01/23 06:12:42;;;;;;;4.07;0.95;;;;;;;;;;4995110;28;20030;-95
2022/01/23 06:15:11;;;;;;;3.58;1.08;;;;;;;;;;4995106;28;20025;-95
2022/01/23 06:17:40;;;;;;;1.67;0.95;;;;;;;;;;4995331;28;20026;-95
2022/01/23 06:20:11;;;;;;;4.10;1.08;;;;;;;;;;4995462;28;20018;-95
2022/01/23 06:22:37;;;;;;;4.50;1.00;;;;;;;;;;4995796;28;20508;-94
2022/01/23 06:25:06;;;;;;;1.80;0.90;;;;;;;;;;4994923;28;20389;-94
2022/01/23 06:27:32;;;;;;;5.20;1.00;;;;;;;;;;4994781;28;20026;-94
2022/01/23 06:30:01;;;;;;;2.60;1.10;;;;;;;;;;4994831;28;20128;-95
2022/01/23 06:32:30;;;;;;;3.05;0.90;;;;;;;;;;4994297;28;20018;-95
2022/01/23 06:35:03;;;;;;;5.65;1.00;;;;;;;;;;4995658;28;20026;-95
2022/01/23 06:37:32;;;;;;;5.18;1.05;;;;;;;;;;4994711;28;20524;-95
2022/01/23 06:40:00;;;;;;;1.67;0.80;;;;;;;;;;4995049;28;20458;-95
2022/01/23 06:42:29;;;;;;;2.63;0.77;;;;;;;;;;4995590;28;20031;-95
2022/01/23 06:45:00;;;;;;;4.47;1.63;;;;;;;;;;4994981;28;20018;-95
2022/01/23 06:47:26;;;;;;;2.22;1.00;;;;;;;;;;4994508;28;20397;-96
2022/01/23 06:49:52;;;;;;;15.15;1.40;;;;;;;;;;4994606;28;20090;-96
2022/01/23 06:52:21;;;;;;;3.13;1.10;;;;;;;;;;4994616;28;20022;-95
2022/01/23 06:54:47;;;;;;;1.17;0.68;;;;;;;;;;4994504;28;20030;-94
2022/01/23 06:57:13;;;;;;;2.65;0.70;;;;;;;;;;4994364;28;20033;-94
2022/01/23 06:59:40;;;;;;;1.73;1.00;;;;;;;;;;4994270;28;20022;-95
2022/01/23 07:02:09;;;;;;;4.70;1.38;;;;;;;;;;4994699;28;20018;-94
2022/01/23 07:04:35;;;;;;;1.90;1.02;;;;;;;;;;4995395;28;20088;-94
2022/01/23 07:07:01;;;;;;;3.58;1.35;;;;;;;;;;4994230;28;20022;-94
2022/01/23 07:09:27;;;;;;;1.50;1.08;;;;;;;;;;4994183;28;20058;-94
2022/01/23 07:11:54;;;;;;;2.20;0.90;;;;;;;;;;4994059;28;20098;-93
2022/01/23 07:14:20;;;;;;;5.47;1.15;;;;;;;;;;4994319;28;20088;-94
2022/01/23 07:16:46;;;;;;;2.28;1.02;;;;;;;;;;4993987;28;20057;-94
2022/01/23 07:19:12;;;;;;;2.85;0.80;;;;;;;;;;4993870;28;20031;-94
2022/01/23 07:21:41;;;;;;;1.90;1.05;;;;;;;;;;4994431;28;20022;-94
2022/01/23 07:24:10;;;;;;;2.47;0.88;;;;;;;;;;4993763;28;20026;-93
2022/01/23 07:26:41;;;;;;;2.85;0.82;;;;;;;;;;4993808;28;20485;-94
2022/01/23 07:29:07;;;;;;;4.22;1.13;;;;;;;;;;4994030;28;20022;-95
2022/01/23 07:34:02;;;;;;;3.05;1.02;;;;;;;;;;4995105;28;20030;-96
2022/01/23 07:36:31;;;;;;;2.42;0.90;;;;;;;;;;4993782;28;20033;-95
2022/01/23 07:38:59;;;;;;;4.85;1.40;;;;;;;;;;4993876;28;20101;-96
2022/01/23 07:41:33;;;;;;;4.85;1.33;;;;;;;;;;4994039;28;20018;-96
2022/01/23 07:43:59;;;;;;;2.35;1.25;;;;;;;;;;4995323;28;20030;-96
2022/01/23 07:46:30;;;;;;;3.67;1.75;;;;;;;;;;4997803;28;20034;-96
2022/01/23 07:48:59;;;;;;;3.38;1.08;;;;;;;;;;4997778;28;20077;-95
2022/01/23 07:51:30;;;;;;;2.92;1.60;;;;;;;;;;4997606;28;20031;-96
2022/01/23 07:53:59;;;;;;;11.45;1.50;;;;;;;;;;4998448;28;20058;-96
2022/01/23 07:56:42;;;;;;;2.33;1.25;;;;;;;;;;4997783;28;20370;-96
2022/01/23 07:59:10;;;;;;;3.45;1.40;;;;;;;;;;4997956;28;20019;-96
2022/01/23 08:01:40;;;;;;;2.50;1.10;;;;;;;;;;4997650;28;20025;-95
2022/01/23 08:04:09;;;;;;;3.03;1.20;;;;;;;;;;4998122;28;20085;-96
2022/01/23 08:06:41;;;;;;;1.90;1.00;;;;;;;;;;4997391;28;20023;-96
2022/01/23 08:09:12;;;;;;;1.35;0.80;;;;;;;;;;4997545;28;20120;-96
2022/01/23 08:11:41;;;;;;;1.67;1.10;;;;;;;;;;4997579;28;20026;-96
2022/01/23 08:14:09;;;;;;;7.40;1.13;;;;;;;;;;4997545;28;20481;-95
2022/01/23 08:16:44;;;;;;;8.20;1.80;;;;;;;;;;4997205;28;20042;-95
2022/01/23 08:19:10;;;;;;;6.53;2.15;;;;;;;;;;4997372;28;20054;-96
2022/01/23 08:21:39;;;;;;;3.75;2.28;;;;;;;;;;4997264;28;20124;-96
2022/01/23 08:24:13;;;;;;;5.70;2.30;;;;;;;;;;4997208;28;20113;-96
2022/01/23 08:26:39;;;;;;;3.63;2.05;;;;;;;;;;4997794;28;20026;-95
2022/01/23 08:29:13;;;;;;;4.65;2.00;;;;;;;;;;4997031;28;20137;-96
2022/01/23 08:31:45;;;;;;;3.17;1.55;;;;;;;;;;4997114;28;20026;-96
2022/01/23 08:34:11;;;;;;;3.47;1.60;;;;;;;;;;4997132;28;20026;-95
2022/01/23 08:36:40;;;;;;;5.25;1.90;;;;;;;;;;4996894;28;20257;-95
2022/01/23 08:39:09;;;;;;;4.10;1.63;;;;;;;;;;4997079;28;20022;-95
2022/01/23 08:41:50;;;;;;;4.80;1.48;;;;;;;;;;4997700;28;20027;-95
2022/01/23 08:44:29;;;;;;;3.85;1.58;;;;;;;;;;4996772;28;20034;-95
2022/01/23 08:47:03;;;;;;;2.53;1.33;;;;;;;;;;4997682;28;20029;-95
2022/01/23 08:49:31;;;;;;;3.47;1.30;;;;;;;;;;4997206;28;20026;-94
2022/01/23 08:52:01;;;;;;;3.65;1.50;;;;;;;;;;4996793;28;20035;-94
2022/01/23 08:54:30;;;;;;;3.92;1.10;;;;;;;;;;4996050;28;20018;-96
2022/01/23 08:57:03;;;;;;;3.63;1.10;;;;;;;;;;4996641;28;20084;-95
2022/01/23 08:59:32;;;;;;;1.77;1.00;;;;;;;;;;4996557;28;20464;-96
2022/01/23 09:02:01;;;;;;;5.00;1.10;;;;;;;;;;4996716;28;20065;-95
2022/01/23 09:04:43;;;;;;;6.25;1.50;;;;;;;;;;4996569;28;20026;-96
2022/01/23 09:07:09;;;;;;;2.78;1.17;;;;;;;;;;4996496;28;20027;-95
2022/01/23 09:09:41;;;;;;;4.70;1.27;;;;;;;;;;4996420;28;20037;-95
2022/01/23 09:14:54;;;;;;;3.30;1.00;;;;;;;;;;4997803;28;20093;-96
2022/01/23 09:17:20;;;;;;;2.42;1.23;;;;;;;;;;4996285;28;20188;-96
2022/01/23 09:19:47;;;;;;;3.38;1.80;;;;;;;;;;4996239;28;20023;-94
2022/01/23 09:22:14;;;;;;;3.47;1.17;;;;;;;;;;4996388;28;20572;-96
2022/01/23 09:24:40;;;;;;;2.90;1.50;;;;;;;;;;4997010;28;20033;-95
2022/01/23 09:27:08;;;;;;;5.03;1.58;;;;;;;;;;4996129;28;20030;-95
2022/01/23 09:29:43;;;;;;;2.67;1.48;;;;;;;;;;4995968;28;20058;-95
2022/01/23 09:32:13;;;;;;;3.83;1.35;;;;;;;;;;4996021;28;20026;-94
2022/01/23 09:34:41;;;;;;;2.55;1.15;;;;;;;;;;4996686;28;20034;-95
2022/01/23 09:37:11;;;;;;;2.72;1.17;;;;;;;;;;4995799;28;20022;-96
2022/01/23 09:39:41;;;;;;;2.97;1.10;;;;;;;;;;4995793;28;20029;-96
2022/01/23 09:42:10;;;;;;;5.07;1.17;;;;;;;;;;4995943;28;20050;-96
2022/01/23 09:44:59;;;;;;;1.27;0.90;;;;;;;;;;4995744;28;20489;-96
2022/01/23 09:47:31;;;;;;;2.45;1.10;;;;;;;;;;4986036;28;20386;-95
2022/01/23 09:50:03;;;;;;;4.57;1.25;;;;;;;;;;4995577;28;20076;-95
2022/01/23 09:52:31;;;;;;;;;;;;;;;;;;4996125;28;20037;-96
2022/01/23 09:55:05;;;;;;;6.25;1.30;;;;;;;;;;4995783;28;19953;-94
2022/01/23 09:57:33;;;;;;;2.92;0.90;;;;;;;;;;4996109;28;20030;-94
2022/01/23 10:00:04;;;;;;;1.80;0.98;;;;;;;;;;4995542;28;20026;-95
2022/01/23 10:02:31;;;;;;;4.63;1.17;;;;;;;;;;4995449;28;20037;-95
2022/01/23 10:04:59;;;;;;;4.13;1.05;;;;;;;;;;4995569;28;20066;-95
2022/01/23 10:07:31;;;;;;;2.83;1.25;;;;;;;;;;4994347;28;20019;-96
2022/01/23 10:10:10;;;;;;;3.30;1.13;;;;;;;;;;4995139;28;20109;-96
2022/01/23 10:12:43;;;;;;;3.83;1.42;;;;;;;;;;4995052;28;20026;-96
2022/01/23 10:15:12;;;;;;;4.50;1.55;;;;;;;;;;4995033;28;20027;-96
2022/01/23 10:17:41;;;;;;;2.47;1.58;;;;;;;;;;4995192;28;20022;-96
2022/01/23 10:20:08;;;;;;;5.63;1.60;;;;;;;;;;4995081;28;20523;-96
2022/01/23 10:22:46;;;;;;;2.83;1.60;;;;;;;;;;4995254;28;20042;-96
2022/01/23 10:25:13;;;;;;;5.43;1.77;;;;;;;;;;4995346;28;20113;-95
2022/01/23 10:28:03;;;;;;;3.17;1.48;;;;;;;;;;4995225;28;20034;-95
2022/01/23 10:30:42;;;;;;;5.72;1.60;;;;;;;;;;4994899;28;20030;-95
2022/01/23 10:33:10;;;;;;;2.30;1.45;;;;;;;;;;4995451;28;20026;-95
2022/01/23 10:35:59;;;;;;;3.95;1.50;;;;;;;;;;4995614;28;20049;-96
2022/01/23 10:38:30;;;;;;;5.75;2.10;;;;;;;;;;4983342;28;20112;-96
2022/01/23 10:50:00;;;;;;;3.63;2.00;;;;;;;;;;4995663;28;20038;-96
2022/01/23 10:52:34;;;;;;;3.03;1.60;;;;;;;;;;4994938;28;20026;-96
2022/01/23 10:55:03;;;;;;;3.25;1.77;;;;;;;;;;4994518;28;20064;-95
2022/01/23 10:58:03;;;;;;;2.92;1.65;;;;;;;;;;4994499;28;20061;-96
2022/01/23 11:00:40;;;;;;;4.20;1.98;;;;;;;;;;4975885;28;20129;-96
2022/01/23 11:03:21;;;;;;;3.67;2.22;;;;;;;;;;4994617;28;20034;-96
2022/01/23 11:06:00;;;;;;;4.38;1.83;;;;;;;;;;4996939;28;20346;-96
2022/01/23 11:08:33;;;;;;;2.65;1.90;;;;;;;;;;4994665;28;20027;-96
2022/01/23 11:11:00;;;;;;;2.70;1.65;;;;;;;;;;4994219;28;20080;-95
2022/01/23 11:19:42;;;;;;;2.67;1.70;;;;;;;;;;4995145;28;20032;-95
2022/01/23 11:22:32;;;;;;;3.50;1.80;;;;;;;;;;4994486;28;20484;-96
2022/01/23 11:25:00;;;;;;;2.33;1.67;;;;;;;;;;4994347;28;20026;-96
2022/01/23 11:27:31;;;;;;;3.30;1.60;;;;;;;;;;4994122;28;20124;-96
2022/01/23 11:30:03;;;;;;;3.00;1.60;;;;;;;;;;4994205;28;20058;-96
2022/01/23 11:32:35;;;;;;;3.20;1.90;;;;;;;;;;4994000;28;20121;-95
2022/01/23 11:35:12;;;;;;;;;;;;;;;;;;4995826;28;20030;-96
2022/01/23 11:37:52;;;;;;;2.63;1.60;;;;;;;;;;4993850;28;19905;-96
2022/01/23 11:40:42;;;;;;;2.45;1.25;;;;;;;;;;4994215;28;20077;-96
2022/01/23 11:54:40;;;;;;;3.65;1.60;;;;;;;;;;4995171;28;20053;-96
2022/01/23 11:57:36;;;;;;;;;;;;;;;;;;;;;
2022/01/23 12:00:11;;;;;;;3.47;1.30;;;;;;;;;;4989232;28;20030;-95
2022/01/23 12:02:54;;;;;;;4.93;1.20;;;;;;;;;;4995190;28;20028;-96
2022/01/23 12:05:24;;;;;;;3.80;1.15;;;;;;;;;;4996124;28;20022;-96
2022/01/23 12:08:11;;;;;;;2.05;1.20;;;;;;;;;;4993825;28;20033;-96
2022/01/23 12:10:52;;;;;;;2.97;1.40;;;;;;;;;;4993827;28;20420;-93
2022/01/23 12:13:54;;;;;;;1.33;0.85;;;;;;;;;;4993514;28;20401;-95
2022/01/23 12:16:31;;;;;;;2.40;1.20;;;;;;;;;;4994528;28;20051;-95
2022/01/23 12:19:19;;;;;;;1.73;1.08;;;;;;;;;;4993492;28;20030;-96
2022/01/23 12:21:53;;;;;;;2.35;1.10;;;;;;;;;;4993517;28;20114;-96
2022/01/23 12:24:23;;;;;;;3.00;1.20;;;;;;;;;;4993681;28;20018;-95
2022/01/23 12:26:50;;;;;;;1.92;0.82;;;;;;;;;;4993777;28;20369;-95
2022/01/23 12:29:24;;;;;;;10.02;2.92;;;;;;;;;;4993809;28;20030;-96
2022/01/23 12:32:10;;;;;;;4.13;1.95;;;;;;;;;;4997060;28;20041;-95
2022/01/23 12:34:57;;;;;;;4.38;1.65;;;;;;;;;;4996569;28;20038;-94
2022/01/23 12:37:24;;;;;;;7.65;2.45;;;;;;;;;;4996814;28;20026;-95
2022/01/23 12:40:11;;;;;;;1.67;1.10;;;;;;;;;;4997021;28;20031;-96
2022/01/23 12:43:12;;;;;;;7.47;1.80;;;;;;;;;;4997436;28;20022;-96
2022/01/23 12:45:52;;;;;;;6.40;2.30;;;;;;;;;;4997251;28;20022;-94
2022/01/23 12:48:29;;;;;;;7.70;1.40;;;;;;;;;;4997637;28;20108;-94
2022/01/23 12:51:00;;;;;;;5.20;1.10;;;;;;;;;;4996785;28;20022;-96
2022/01/23 12:53:40;;;;;;;2.00;1.08;;;;;;;;;;4996812;28;20057;-95
2022/01/23 12:56:10;;;;;;;3.53;2.20;;;;;;;;;;4996624;28;20109;-96
2022/01/23 12:58:39;;;;;;;9.75;4.60;;;;;;;;;;4996904;28;20480;-95
2022/01/23 13:01:09;;;;;;;5.35;2.17;;;;;;;;;;4996660;28;20023;-96
2022/01/23 13:03:42;;;;;;;2.78;1.50;;;;;;;;;;4997651;28;20026;-96
2022/01/23 13:06:12;;;;;;;3.42;1.17;;;;;;;;;;4996808;28;20034;-96
2022/01/23 13:08:49;;;;;;;3.05;1.38;;;;;;;;;;4980686;28;20069;-95
2022/01/23 13:14:04;;;;;;;1.80;0.98;;;;;;;;;;4997354;28;20062;-93
2022/01/23 13:16:40;;;;;;;4.95;1.15;;;;;;;;;;4996292;28;20046;-93
2022/01/23 13:19:32;;;;;;;2.17;0.60;;;;;;;;;;4996466;28;20019;-94
2022/01/23 13:30:25;;;;;;;2.10;0.60;;;;;;;;;;4997494;28;20030;-94
2022/01/23 13:32:56;;;;;;;1.08;0.60;;;;;;;;;;4996075;28;20473;-95
2022/01/23 13:35:26;;;;;;;1.85;0.73;;;;;;;;;;4996045;28;20026;-94
2022/01/23 13:37:57;;;;;;;0.93;0.60;;;;;;;;;;4995887;28;20062;-94
2022/01/23 13:40:28;;;;;;;0.88;0.50;;;;;;;;;;4995658;28;20072;-93
2022/01/23 13:59:06;;;;;;;0.98;0.80;;;;;;;;;;4996860;28;20033;-95
2022/01/23 14:01:47;;;;;;;2.03;0.90;;;;;;;;;;4995791;28;20030;-94
2022/01/23 14:04:20;;;;;;;1.45;0.93;;;;;;;;;;4995480;28;20026;-94
2022/01/23 14:06:52;;;;;;;3.30;1.00;;;;;;;;;;4995631;28;20026;-94
2022/01/23 14:09:21;;;;;;;2.42;0.57;;;;;;;;;;4996667;28;20030;-95
2022/01/23 14:11:55;;;;;;;0.88;0.70;;;;;;;;;;4995308;28;20073;-94
2022/01/23 14:14:22;;;;;;;1.38;0.95;;;;;;;;;;4994946;28;20023;-94
2022/01/23 14:16:50;;;;;;;1.90;0.82;;;;;;;;;;4995266;28;20046;-93
2022/01/23 14:19:27;;;;;;;2.63;0.77;;;;;;;;;;4995263;28;20392;-93
2022/01/23 14:22:02;;;;;;;1.35;0.82;;;;;;;;;;4995059;28;20022;-95
2022/01/23 14:24:29;;;;;;;1.30;0.60;;;;;;;;;;4995084;28;20037;-93
2022/01/23 14:27:13;;;;;;;0.90;0.32;;;;;;;;;;4995102;28;20034;-94
2022/01/23 14:29:49;;;;;;;0.98;0.65;;;;;;;;;;4995094;28;20568;-94
2022/01/23 14:32:40;;;;;;;0.85;0.45;;;;;;;;;;4995269;28;20436;-93
2022/01/23 14:35:13;;;;;;;2.42;0.93;;;;;;;;;;4996013;28;20035;-95
2022/01/23 14:37:40;;;;;;;1.58;0.90;;;;;;;;;;4994866;28;20026;-94
2022/01/23 14:40:22;;;;;;;1.92;0.80;;;;;;;;;;4994739;28;20084;-93
2022/01/23 14:43:17;;;;;;;2.30;0.57;;;;;;;;;;4994800;28;20058;-93
2022/01/23 14:45:45;;;;;;;1.23;0.50;;;;;;;;;;4978333;28;20033;-94
2022/01/23 14:48:12;;;;;;;1.02;0.75;;;;;;;;;;4994940;28;20030;-94
2022/01/23 14:50:40;;;;;;;0.55;0.40;;;;;;;;;;4994616;28;20038;-95
2022/01/23 14:53:14;;;;;;;2.35;0.50;;;;;;;;;;4994210;28;20030;-95
2022/01/23 14:55:54;;;;;;;1.80;0.50;;;;;;;;;;4994835;28;20128;-94
2022/01/23 14:58:22;;;;;;;3.38;0.82;;;;;;;;;;4994855;28;20029;-94
2022/01/23 15:00:53;;;;;;;1.67;0.70;;;;;;;;;;4994699;28;20057;-94
2022/01/23 15:03:23;;;;;;;8.45;1.45;;;;;;;;;;4994774;28;20496;-94
2022/01/23 15:05:52;;;;;;;6.68;1.27;;;;;;;;;;4994469;28;20042;-94
2022/01/23 15:08:23;;;;;;;8.15;3.97;;;;;;;;;;4994260;28;20049;-94
2022/01/23 15:10:53;;;;;;;5.88;1.60;;;;;;;;;;4994641;28;20033;-93
2022/01/23 15:13:22;;;;;;;1.83;0.70;;;;;;;;;;4994957;28;20026;-95
2022/01/23 15:15:51;;;;;;;2.38;0.90;;;;;;;;;;4993921;28;20148;-93
2022/01/23 15:18:18;;;;;;;4.57;1.00;;;;;;;;;;4994206;28;20037;-94
2022/01/23 15:20:44;;;;;;;3.08;0.63;;;;;;;;;;4994429;28;20053;-94
2022/01/23 15:23:11;;;;;;;97.38;45.08;;;;;;;;;;4994185;28;20038;-94
2022/01/23 15:25:41;;;;;;;6.18;3.15;;;;;;;;;;4993929;28;20087;-94
2022/01/23 15:28:07;;;;;;;7.30;1.50;;;;;;;;;;4994204;28;20478;-94
2022/01/23 15:30:36;;;;;;;13.45;2.03;;;;;;;;;;4993854;28;20497;-94
2022/01/23 15:33:03;;;;;;;3.50;0.85;;;;;;;;;;4993889;28;20362;-93
2022/01/23 15:35:29;;;;;;;6.30;0.70;;;;;;;;;;4994125;28;20088;-94
2022/01/23 15:37:56;;;;;;;1.17;0.75;;;;;;;;;;4993686;28;20058;-93
2022/01/23 15:40:22;;;;;;;2.35;0.90;;;;;;;;;;4993865;28;20030;-93
2022/01/23 15:42:50;;;;;;;8.93;0.82;;;;;;;;;;4994121;28;20026;-93
2022/01/23 15:45:21;;;;;;;2.42;0.73;;;;;;;;;;4994751;28;20026;-94
2022/01/23 15:47:47;;;;;;;4.25;0.70;;;;;;;;;;4993851;28;20123;-92
2022/01/23 15:50:15;;;;;;;0.98;0.68;;;;;;;;;;4993796;28;20026;-94
2022/01/23 15:52:42;;;;;;;1.52;0.88;;;;;;;;;;4994147;28;20034;-93
2022/01/23 15:55:11;;;;;;;1.13;0.70;;;;;;;;;;4993477;28;20034;-93
2022/01/23 15:57:38;;;;;;;13.65;1.77;;;;;;;;;;4993971;28;20495;-94
2022/01/23 16:00:12;;;;;;;3.45;0.90;;;;;;;;;;5001003;28;20049;-94
2022/01/23 16:02:41;;;;;;;1.23;0.90;;;;;;;;;;5000142;28;20023;-94
2022/01/23 16:05:07;;;;;;;1.08;0.50;;;;;;;;;;4995286;28;20027;-94
2022/01/23 16:07:34;;;;;;;2.50;1.35;;;;;;;;;;4997801;28;20583;-95
2022/01/23 16:10:00;;;;;;;4.15;1.10;;;;;;;;;;4997406;28;20029;-94
2022/01/23 16:12:28;;;;;;;2.35;1.10;;;;;;;;;;4997457;28;20113;-94
2022/01/23 16:14:55;;;;;;;1.85;0.90;;;;;;;;;;4997300;28;20050;-94
2022/01/23 16:17:21;;;;;;;76.47;46.17;;;;;;;;;;4997326;28;20400;-94
2022/01/23 16:19:47;;;;;;;13.68;8.68;;;;;;;;;;4997102;28;20117;-94
2022/01/23 16:22:13;;;;;;;3.75;1.48;;;;;;;;;;4997302;28;20481;-94
2022/01/23 16:24:39;;;;;;;2.65;0.88;;;;;;;;;;4997231;28;20380;-95
2022/01/23 16:27:08;;;;;;;4.22;2.33;;;;;;;;;;4997286;28;20076;-94
2022/01/23 16:29:34;;;;;;;1.35;0.80;;;;;;;;;;4997253;28;20030;-94
2022/01/23 16:32:00;;;;;;;1.23;0.68;;;;;;;;;;4997579;28;20121;-94
2022/01/23 16:34:34;;;;;;;1.27;0.70;;;;;;;;;;4997006;28;20481;-95
2022/01/23 16:37:00;;;;;;;1.38;0.70;;;;;;;;;;4996994;28;20085;-94
2022/01/23 16:39:26;;;;;;;3.05;0.68;;;;;;;;;;4997016;28;20119;-94
2022/01/23 16:41:52;;;;;;;2.20;0.50;;;;;;;;;;4997143;28;20022;-94
2022/01/23 16:44:22;;;;;;;1.92;0.70;;;;;;;;;;4996842;28;20058;-95
2022/01/23 16:46:48;;;;;;;1.15;0.80;;;;;;;;;;4996860;28;20058;-95
2022/01/23 16:49:14;;;;;;;2.15;0.68;;;;;;;;;;4996902;28;20027;-95
2022/01/23 16:51:41;;;;;;;7.57;3.33;;;;;;;;;;4996701;28;20045;-95
2022/01/23 16:54:14;;;;;;;7.40;4.30;;;;;;;;;;4996720;28;20026;-95
2022/01/23 16:56:41;;;;;;;4.43;2.00;;;;;;;;;;4997202;28;20053;-95
2022/01/23 16:59:10;;;;;;;3.63;1.52;;;;;;;;;;4996810;28;20023;-95
2022/01/23 17:01:46;;;;;;;1.77;1.10;;;;;;;;;;4996490;28;20029;-96
2022/01/23 17:04:13;;;;;;;4.15;1.30;;;;;;;;;;4996411;28;20374;-96
2022/01/23 17:06:42;;;;;;;3.40;1.27;;;;;;;;;;4996442;28;20026;-95
2022/01/23 17:09:09;;;;;;;3.20;1.42;;;;;;;;;;4996403;28;20113;-95
2022/01/23 17:11:43;;;;;;;3.72;1.20;;;;;;;;;;4996683;28;20029;-95
2022/01/23 17:14:12;;;;;;;2.05;1.30;;;;;;;;;;4996372;28;20031;-96
2022/01/23 17:16:45;;;;;;;1.65;1.05;;;;;;;;;;4995640;28;20084;-95
2022/01/23 17:19:12;;;;;;;1.92;0.90;;;;;;;;;;4996357;28;20027;-96
2022/01/23 17:21:38;;;;;;;1.88;0.90;;;;;;;;;;4996448;28;20385;-95
2022/01/23 17:24:04;;;;;;;1.95;1.02;;;;;;;;;;4996327;28;20033;-96
2022/01/23 17:29:35;;;;;;;1.73;1.10;;;;;;;;;;4997311;28;20045;-96
2022/01/23 17:32:01;;;;;;;1.80;1.08;;;;;;;;;;4995979;28;20054;-95
2022/01/23 17:34:34;;;;;;;2.03;1.35;;;;;;;;;;4995990;28;20393;-95
2022/01/23 17:37:03;;;;;;;2.90;1.48;;;;;;;;;;4995810;28;20037;-96
2022/01/23 17:39:32;;;;;;;5.43;1.63;;;;;;;;;;4995831;28;20078;-95
2022/01/23 17:41:58;;;;;;;3.70;1.45;;;;;;;;;;4995808;28;20543;-95
2022/01/23 17:44:29;;;;;;;3.20;1.50;;;;;;;;;;4995749;28;20027;-95
2022/01/23 17:47:06;;;;;;;1.83;1.20;;;;;;;;;;4995851;28;20034;-94
2022/01/23 17:49:52;;;;;;;3.83;1.70;;;;;;;;;;4995664;28;20027;-95
2022/01/23 17:52:21;;;;;;;9.75;1.42;;;;;;;;;;4995612;28;20022;-95
2022/01/23 17:54:54;;;;;;;3.42;1.60;;;;;;;;;;4995409;28;20065;-95
2022/01/23 17:57:20;;;;;;;2.28;1.38;;;;;;;;;;4995610;28;20026;-95
2022/01/23 17:59:51;;;;;;;2.20;1.27;;;;;;;;;;4995503;28;20053;-95
2022/01/23 18:02:20;;;;;;;4.32;1.30;;;;;;;;;;4995521;28;20485;-95
2022/01/23 18:04:48;;;;;;;1.50;0.95;;;;;;;;;;4995768;28;20113;-96
2022/01/23 18:07:17;;;;;;;1.73;1.17;;;;;;;;;;4995514;28;20511;-94
2022/01/23 18:09:43;;;;;;;3.55;1.35;;;;;;;;;;4995459;28;20099;-95
2022/01/23 18:12:12;;;;;;;3.70;1.20;;;;;;;;;;4996015;28;20027;-95
2022/01/23 18:14:55;;;;;;;4.22;1.40;;;;;;;;;;4994937;28;20026;-94
2022/01/23 18:17:24;;;;;;;2.38;1.30;;;;;;;;;;4995044;28;20047;-96
2022/01/23 18:19:53;;;;;;;1.88;1.30;;;;;;;;;;4995163;28;20177;-95
2022/01/23 18:22:22;;;;;;;4.32;1.50;;;;;;;;;;4994863;28;20026;-95
2022/01/23 18:24:50;;;;;;;4.25;1.50;;;;;;;;;;4994879;28;20064;-94
2022/01/23 18:27:17;;;;;;;1.92;1.20;;;;;;;;;;4994195;28;20117;-95
2022/01/23 18:29:43;;;;;;;2.10;1.35;;;;;;;;;;4994751;28;20026;-95